Time;durP1;ratioP1;P1;durP2;ratioP2;P2;SDS_P1;SDS_P2;PMS_P1;PMS_P2;Temp;Humidity;BMP_temperature;BMP_pressure;BME280_temperature;BME280_humidity;BME280_pressure;Samples;Min_cycle;Max_cycle;Signal;HPM_P1;HPM_P2
2021/11/24 00:02:54;;;;;;;21.70;13.67;;;3.40;99.90;;;;;;6325351;28;20479;-67
2021/11/24 00:05:58;;;;;;;20.43;15.00;;;3.40;99.90;;;;;;6325357;28;21009;-67
2021/11/24 00:09:01;;;;;;;17.20;13.43;;;3.40;99.90;;;;;;6325018;28;20456;-66
2021/11/24 00:12:07;;;;;;;17.10;13.33;;;3.30;99.90;;;;;;6324491;28;20447;-67
2021/11/24 00:15:12;;;;;;;19.63;13.03;;;3.30;99.90;;;;;;6325768;28;20884;-69
2021/11/24 00:18:15;;;;;;;20.63;14.03;;;3.20;99.90;;;;;;6326194;28;20824;-67
2021/11/24 00:21:19;;;;;;;17.53;13.60;;;3.20;99.90;;;;;;6325460;28;20781;-67
2021/11/24 00:24:23;;;;;;;15.47;13.57;;;3.10;99.90;;;;;;6325758;27;20452;-68
2021/11/24 00:27:27;;;;;;;18.60;15.23;;;3.20;99.90;;;;;;6325654;27;20472;-68
2021/11/24 00:30:30;;;;;;;22.07;15.60;;;3.10;99.90;;;;;;6325279;27;20479;-67
2021/11/24 00:33:34;;;;;;;18.53;16.23;;;3.10;99.90;;;;;;6325423;27;20460;-68
2021/11/24 00:36:37;;;;;;;18.10;14.63;;;3.10;99.90;;;;;;6324635;27;20943;-67
2021/11/24 00:39:40;;;;;;;19.93;15.40;;;3.10;99.90;;;;;;6325162;27;20535;-67
2021/11/24 00:42:45;;;;;;;19.63;15.90;;;3.10;99.90;;;;;;6324941;27;20476;-68
2021/11/24 00:45:48;;;;;;;19.00;15.40;;;3.10;99.90;;;;;;6324491;27;20461;-68
2021/11/24 00:48:51;;;;;;;19.47;14.33;;;3.10;99.90;;;;;;6324933;27;20472;-67
2021/11/24 00:51:54;;;;;;;17.50;12.93;;;3.10;99.90;;;;;;6324833;28;20468;-67
2021/11/24 00:54:58;;;;;;;19.53;12.90;;;3.00;99.90;;;;;;6324700;28;20464;-67
2021/11/24 00:58:02;;;;;;;20.47;13.80;;;3.00;99.90;;;;;;6323955;28;20467;-68
2021/11/24 01:01:05;;;;;;;16.13;14.17;;;3.00;99.90;;;;;;6322578;28;20805;-69
2021/11/24 01:04:09;;;;;;;19.30;15.10;;;2.90;99.90;;;;;;6323295;28;20534;-68
2021/11/24 01:07:12;;;;;;;21.47;14.97;;;3.00;99.90;;;;;;6322919;28;20471;-67
2021/11/24 01:10:15;;;;;;;20.27;15.03;;;2.90;99.90;;;;;;6322865;28;20958;-67
2021/11/24 01:13:20;;;;;;;15.93;13.53;;;2.90;99.90;;;;;;6322842;28;20483;-69
2021/11/24 01:16:23;;;;;;;16.37;13.30;;;2.90;99.90;;;;;;6323389;28;20491;-69
2021/11/24 01:19:27;;;;;;;17.80;14.03;;;2.90;99.90;;;;;;6322264;28;20480;-71
2021/11/24 01:22:30;;;;;;;16.00;13.40;;;2.90;99.90;;;;;;6323875;28;20487;-70
2021/11/24 01:25:34;;;;;;;17.80;13.97;;;3.00;99.90;;;;;;6327061;28;20511;-70
2021/11/24 01:28:38;;;;;;;18.03;13.40;;;2.90;99.90;;;;;;6327426;28;20479;-70
2021/11/24 01:31:42;;;;;;;17.43;13.50;;;2.90;99.90;;;;;;6327698;28;20472;-70
2021/11/24 01:34:45;;;;;;;17.40;12.60;;;2.90;99.90;;;;;;6328984;28;20472;-69
2021/11/24 01:37:48;;;;;;;19.80;13.67;;;2.90;99.90;;;;;;6328479;28;20506;-71
2021/11/24 01:40:52;;;;;;;15.43;12.97;;;2.90;99.90;;;;;;6329009;28;20804;-69
2021/11/24 01:43:56;;;;;;;18.83;13.90;;;2.90;99.90;;;;;;6328981;28;20487;-69
2021/11/24 01:47:02;;;;;;;20.00;15.93;;;2.80;99.90;;;;;;6328249;28;20471;-69
2021/11/24 01:50:07;;;;;;;17.50;13.43;;;2.80;99.90;;;;;;6319080;28;20936;-67
2021/11/24 01:53:10;;;;;;;14.27;12.00;;;2.70;99.90;;;;;;6328110;27;20468;-67
2021/11/24 01:56:14;;;;;;;14.40;12.23;;;2.70;99.90;;;;;;6329317;28;20475;-68
2021/11/24 01:59:18;;;;;;;15.90;12.10;;;2.70;99.90;;;;;;6328256;28;20464;-67
2021/11/24 02:02:22;;;;;;;20.27;11.90;;;2.60;99.90;;;;;;6327763;28;20747;-68
2021/11/24 02:05:25;;;;;;;19.93;14.37;;;2.60;99.90;;;;;;6327337;28;20460;-68
2021/11/24 02:08:28;;;;;;;21.80;15.00;;;2.60;99.90;;;;;;6327596;28;20459;-68
2021/11/24 02:11:35;;;;;;;16.67;13.20;;;2.60;99.90;;;;;;6327683;28;20772;-68
2021/11/24 02:14:40;;;;;;;19.50;13.93;;;2.50;99.90;;;;;;6327889;28;20467;-68
2021/11/24 02:17:43;;;;;;;13.83;12.27;;;2.40;99.90;;;;;;6322949;28;20483;-68
2021/11/24 02:20:48;;;;;;;14.87;11.23;;;2.50;99.90;;;;;;6328229;28;20468;-68
2021/11/24 02:23:51;;;;;;;13.57;10.97;;;2.40;99.90;;;;;;6328677;28;20494;-69
2021/11/24 02:26:55;;;;;;;13.40;11.20;;;2.30;99.90;;;;;;6328686;28;20468;-68
2021/11/24 02:29:58;;;;;;;13.43;11.77;;;2.30;99.90;;;;;;6328478;28;20472;-70
2021/11/24 02:33:02;;;;;;;15.93;12.13;;;2.40;99.90;;;;;;6329261;28;20472;-70
2021/11/24 02:36:08;;;;;;;19.00;12.40;;;2.40;99.90;;;;;;6302889;28;20473;-68
2021/11/24 02:39:12;;;;;;;18.37;13.23;;;2.40;99.90;;;;;;6303542;28;20481;-68
2021/11/24 02:42:15;;;;;;;21.10;14.00;;;2.30;99.90;;;;;;6303489;28;20453;-68
2021/11/24 02:45:18;;;;;;;17.33;12.60;;;2.30;99.90;;;;;;6303503;28;20437;-68
2021/11/24 02:48:26;;;;;;;18.13;12.83;;;2.30;99.90;;;;;;6302867;28;20452;-75
2021/11/24 02:51:30;;;;;;;19.53;14.77;;;2.30;99.90;;;;;;6303093;28;20945;-69
2021/11/24 02:54:33;;;;;;;14.10;12.20;;;2.30;99.90;;;;;;6304031;28;20457;-70
2021/11/24 02:57:39;;;;;;;18.70;13.10;;;2.30;99.90;;;;;;6303527;28;20476;-69
2021/11/24 03:00:42;;;;;;;18.10;15.00;;;2.30;99.90;;;;;;6303346;28;20488;-69
2021/11/24 03:03:46;;;;;;;19.10;14.10;;;2.20;99.90;;;;;;6303606;28;21045;-69
2021/11/24 03:06:50;;;;;;;17.37;13.40;;;2.20;99.90;;;;;;6303520;28;20469;-67
2021/11/24 03:09:53;;;;;;;17.97;13.40;;;2.20;99.90;;;;;;6301456;28;20476;-69
2021/11/24 03:12:57;;;;;;;16.77;13.43;;;2.20;99.90;;;;;;6301915;28;20961;-69
2021/11/24 03:16:00;;;;;;;19.47;13.13;;;2.20;99.90;;;;;;6302314;28;20480;-70
2021/11/24 03:19:03;;;;;;;21.60;13.40;;;2.10;99.90;;;;;;6302564;28;20473;-70
2021/11/24 03:22:08;;;;;;;16.60;12.83;;;2.20;99.90;;;;;;6302039;28;20476;-70
2021/11/24 03:25:13;;;;;;;20.57;12.60;;;2.10;99.90;;;;;;6302007;28;20791;-68
2021/11/24 03:28:17;;;;;;;17.83;13.07;;;2.10;99.90;;;;;;6301674;28;20972;-70
2021/11/24 03:31:20;;;;;;;15.93;12.90;;;2.10;99.90;;;;;;6301966;28;20479;-70
2021/11/24 03:34:23;;;;;;;20.63;14.33;;;2.10;99.90;;;;;;6301461;28;20476;-70
2021/11/24 03:37:28;;;;;;;16.43;13.60;;;2.00;99.90;;;;;;6300968;28;20473;-69
2021/11/24 03:40:34;;;;;;;21.87;13.97;;;2.10;99.90;;;;;;6301277;28;20472;-70
2021/11/24 03:43:37;;;;;;;17.67;13.83;;;2.00;99.90;;;;;;6301185;28;20473;-69
2021/11/24 03:46:40;;;;;;;19.90;14.63;;;2.00;99.90;;;;;;6301167;28;20817;-69
2021/11/24 03:49:43;;;;;;;20.70;13.60;;;1.90;99.90;;;;;;6300768;28;20806;-69
2021/11/24 03:52:48;;;;;;;20.00;14.77;;;1.80;99.90;;;;;;6301043;28;20473;-69
2021/11/24 03:55:51;;;;;;;16.63;14.03;;;1.70;99.90;;;;;;6300470;28;20981;-69
2021/11/24 03:58:55;;;;;;;22.60;17.23;;;1.70;99.90;;;;;;6290782;28;20485;-70
2021/11/24 04:01:58;;;;;;;21.60;15.03;;;1.80;99.90;;;;;;6302005;28;20484;-70
2021/11/24 04:05:01;;;;;;;21.73;14.30;;;1.70;99.90;;;;;;6303466;28;20962;-67
2021/11/24 04:08:06;;;;;;;14.83;13.00;;;1.70;99.90;;;;;;6304526;28;20795;-69
2021/11/24 04:11:09;;;;;;;18.20;13.23;;;1.80;99.90;;;;;;6303590;28;20473;-69
2021/11/24 04:14:13;;;;;;;17.33;12.40;;;1.80;99.90;;;;;;6302876;28;20472;-69
2021/11/24 04:17:16;;;;;;;16.53;14.07;;;1.80;99.90;;;;;;6301697;28;20469;-67
2021/11/24 04:20:20;;;;;;;15.97;12.90;;;1.80;99.90;;;;;;6300327;28;20474;-67
2021/11/24 04:23:25;;;;;;;16.93;13.13;;;1.80;99.90;;;;;;6300975;28;20473;-67
2021/11/24 04:26:28;;;;;;;17.20;12.80;;;1.80;99.90;;;;;;6300575;28;20481;-70
2021/11/24 04:29:32;;;;;;;13.80;11.10;;;1.70;99.90;;;;;;6300808;28;20473;-70
2021/11/24 04:32:35;;;;;;;16.20;12.23;;;1.80;99.90;;;;;;6299951;28;20483;-70
2021/11/24 04:35:39;;;;;;;14.60;11.57;;;1.80;99.90;;;;;;6299182;28;20504;-69
2021/11/24 04:38:44;;;;;;;16.93;11.70;;;1.80;99.90;;;;;;6299406;28;20493;-67
2021/11/24 04:41:47;;;;;;;14.33;12.57;;;1.80;99.90;;;;;;6300049;28;20468;-67
2021/11/24 04:44:50;;;;;;;20.57;13.33;;;1.80;99.90;;;;;;6299761;28;20472;-68
2021/11/24 04:47:54;;;;;;;13.80;11.80;;;1.70;99.90;;;;;;6300236;28;20488;-68
2021/11/24 04:50:57;;;;;;;17.30;12.80;;;1.70;99.90;;;;;;6300027;28;20476;-69
2021/11/24 04:54:02;;;;;;;16.40;11.10;;;1.70;99.90;;;;;;6300068;28;20465;-67
2021/11/24 04:57:05;;;;;;;14.97;11.97;;;1.60;99.90;;;;;;6299783;28;20468;-67
2021/11/24 05:00:16;;;;;;;16.33;13.17;;;1.60;99.90;;;;;;6294990;28;20489;-68
2021/11/24 05:03:20;;;;;;;18.13;12.50;;;1.60;99.90;;;;;;6300072;28;20912;-67
2021/11/24 05:06:23;;;;;;;17.23;13.50;;;1.50;99.90;;;;;;6299801;28;20991;-69
2021/11/24 05:09:28;;;;;;;21.93;14.63;;;1.40;99.90;;;;;;6300341;28;20461;-70
2021/11/24 05:12:31;;;;;;;15.93;12.90;;;1.40;99.90;;;;;;6301028;28;20460;-70
2021/11/24 05:15:37;;;;;;;17.40;14.10;;;1.40;99.90;;;;;;6299910;28;20526;-70
2021/11/24 05:18:43;;;;;;;15.07;11.80;;;1.40;99.90;;;;;;6299790;28;20514;-68
2021/11/24 05:21:49;;;;;;;27.70;15.13;;;1.40;99.90;;;;;;6299994;28;20473;-68
2021/11/24 05:24:54;;;;;;;14.97;11.97;;;1.40;99.90;;;;;;6300182;28;20476;-68
2021/11/24 05:27:58;;;;;;;15.97;12.10;;;1.40;99.90;;;;;;6300201;28;20484;-68
2021/11/24 05:31:02;;;;;;;25.60;13.57;;;1.40;99.90;;;;;;6300002;28;20468;-68
2021/11/24 05:34:05;;;;;;;15.23;12.70;;;1.40;99.90;;;;;;6299394;28;20465;-68
2021/11/24 05:37:08;;;;;;;18.30;14.70;;;1.40;99.90;;;;;;6299273;28;20477;-68
2021/11/24 05:40:13;;;;;;;16.67;14.03;;;1.40;99.90;;;;;;6299723;28;20474;-68
2021/11/24 05:43:20;;;;;;;16.47;13.73;;;1.40;99.90;;;;;;6299435;28;20535;-68
2021/11/24 05:46:28;;;;;;;18.53;14.33;;;1.40;99.90;;;;;;6299596;28;20480;-68
2021/11/24 05:49:32;;;;;;;23.63;15.80;;;1.40;99.90;;;;;;6299986;28;20631;-68
2021/11/24 05:52:35;;;;;;;19.67;14.40;;;1.40;99.90;;;;;;6299285;28;20473;-68
2021/11/24 05:55:41;;;;;;;20.30;13.60;;;1.40;99.90;;;;;;6299356;28;20985;-68
2021/11/24 05:58:44;;;;;;;13.60;12.20;;;1.40;99.90;;;;;;6299678;28;20481;-68
2021/11/24 06:01:48;;;;;;;16.77;13.00;;;1.40;99.90;;;;;;6299580;28;20472;-68
2021/11/24 06:04:51;;;;;;;14.83;12.40;;;1.40;99.90;;;;;;6298836;28;20813;-69
2021/11/24 06:07:55;;;;;;;18.37;12.60;;;1.40;99.90;;;;;;6284643;28;20481;-70
2021/11/24 06:10:59;;;;;;;18.43;11.40;;;1.40;99.90;;;;;;6302013;28;20953;-69
2021/11/24 06:14:02;;;;;;;16.80;11.93;;;1.40;99.90;;;;;;6303333;28;20480;-68
2021/11/24 06:17:05;;;;;;;15.47;11.27;;;1.40;99.90;;;;;;6303762;28;20480;-68
2021/11/24 06:20:10;;;;;;;13.70;12.07;;;1.40;99.90;;;;;;6303229;28;20480;-68
2021/11/24 06:23:13;;;;;;;18.40;12.97;;;1.40;99.90;;;;;;6303056;28;20465;-68
2021/11/24 06:26:20;;;;;;;17.70;13.60;;;1.40;99.90;;;;;;6302661;28;20824;-68
2021/11/24 06:29:23;;;;;;;17.47;11.60;;;1.40;99.90;;;;;;6303160;28;20465;-68
2021/11/24 06:32:27;;;;;;;19.10;12.80;;;1.40;99.90;;;;;;6305836;28;20468;-68
2021/11/24 06:35:30;;;;;;;15.57;12.77;;;1.50;99.90;;;;;;6308551;28;20488;-68
2021/11/24 06:38:33;;;;;;;13.20;11.20;;;1.50;99.90;;;;;;6304951;28;20485;-69
2021/11/24 06:41:37;;;;;;;14.63;12.47;;;1.50;99.90;;;;;;6303463;28;20956;-69
2021/11/24 06:44:41;;;;;;;14.77;13.23;;;1.50;99.90;;;;;;6302550;28;20813;-70
2021/11/24 06:47:44;;;;;;;15.30;12.70;;;1.50;99.90;;;;;;6302845;28;20477;-69
2021/11/24 06:50:47;;;;;;;14.13;11.40;;;1.40;99.90;;;;;;6302900;28;20469;-68
2021/11/24 06:53:50;;;;;;;20.53;14.17;;;1.50;99.90;;;;;;6302482;28;20484;-69
2021/11/24 06:56:55;;;;;;;13.77;11.50;;;1.50;99.90;;;;;;6302275;28;20473;-69
2021/11/24 06:59:58;;;;;;;16.43;11.07;;;1.50;99.90;;;;;;6302025;28;20507;-68
2021/11/24 07:03:01;;;;;;;14.93;11.73;;;1.60;99.90;;;;;;6302274;28;20480;-67
2021/11/24 07:06:04;;;;;;;29.43;17.50;;;1.60;99.90;;;;;;6301963;28;20566;-68
2021/11/24 07:09:10;;;;;;;32.37;21.10;;;1.60;99.90;;;;;;6294112;28;20449;-68
2021/11/24 07:12:14;;;;;;;25.80;17.73;;;1.60;99.90;;;;;;6305269;28;20460;-68
2021/11/24 07:15:17;;;;;;;24.57;19.70;;;1.70;99.90;;;;;;6302821;28;20456;-67
2021/11/24 07:18:21;;;;;;;14.70;13.10;;;1.70;99.90;;;;;;6302302;28;20445;-69
2021/11/24 07:21:24;;;;;;;21.27;11.83;;;1.80;99.90;;;;;;6301472;28;20485;-69
2021/11/24 07:24:29;;;;;;;19.90;17.57;;;1.90;99.90;;;;;;6302064;28;20461;-68
2021/11/24 07:27:33;;;;;;;20.17;14.30;;;2.00;99.90;;;;;;6301912;28;20819;-68
2021/11/24 07:30:37;;;;;;;16.33;13.40;;;2.00;99.90;;;;;;6301674;28;20461;-68
2021/11/24 07:33:40;;;;;;;14.23;12.43;;;2.00;99.90;;;;;;6301599;28;20941;-69
2021/11/24 07:36:43;;;;;;;13.70;10.93;;;2.10;99.90;;;;;;6301618;28;20477;-69
2021/11/24 07:39:46;;;;;;;17.20;13.30;;;2.10;99.90;;;;;;6300736;28;20500;-69
2021/11/24 07:42:51;;;;;;;13.93;12.57;;;2.20;99.90;;;;;;6301302;28;20547;-70
2021/11/24 07:45:54;;;;;;;17.63;14.70;;;2.30;99.90;;;;;;6301073;28;20483;-69
2021/11/24 07:48:58;;;;;;;16.50;13.43;;;2.30;99.90;;;;;;6301685;28;20491;-69
2021/11/24 07:52:01;;;;;;;18.20;13.60;;;2.40;99.90;;;;;;6302120;28;20476;-70
2021/11/24 07:55:06;;;;;;;13.83;11.73;;;2.50;99.90;;;;;;6301508;28;20469;-70
2021/11/24 07:58:12;;;;;;;14.93;10.77;;;2.50;99.90;;;;;;6301110;28;20807;-69
2021/11/24 08:01:15;;;;;;;18.77;11.10;;;2.60;99.90;;;;;;6301571;28;20469;-70
2021/11/24 08:04:19;;;;;;;18.33;11.10;;;2.60;99.90;;;;;;6300811;28;20465;-69
2021/11/24 08:07:22;;;;;;;15.60;11.50;;;2.60;99.90;;;;;;6301437;28;20770;-68
2021/11/24 08:10:25;;;;;;;14.03;10.33;;;2.70;99.90;;;;;;6300938;28;20822;-69
2021/11/24 08:13:30;;;;;;;16.57;10.33;;;2.80;99.90;;;;;;6296212;28;20473;-69
2021/11/24 08:16:33;;;;;;;14.57;9.10;;;2.90;99.90;;;;;;6300013;28;20477;-69
2021/11/24 08:19:36;;;;;;;17.27;9.27;;;3.00;99.90;;;;;;6300597;28;20582;-69
2021/11/24 08:22:40;;;;;;;18.97;15.37;;;3.00;99.90;;;;;;6300448;28;20791;-70
2021/11/24 08:25:43;;;;;;;26.77;17.87;;;3.00;99.90;;;;;;6299749;28;20964;-70
2021/11/24 08:28:47;;;;;;;20.00;14.27;;;3.00;99.90;;;;;;6300745;28;20473;-70
2021/11/24 08:31:51;;;;;;;20.03;16.30;;;3.00;99.90;;;;;;6298611;28;20473;-70
2021/11/24 08:34:54;;;;;;;21.90;16.07;;;2.90;99.90;;;;;;6299684;28;20465;-70
2021/11/24 08:37:57;;;;;;;19.57;14.97;;;3.00;99.90;;;;;;6296983;28;20540;-70
2021/11/24 08:41:00;;;;;;;30.57;16.90;;;3.00;99.90;;;;;;6299875;28;20488;-70
2021/11/24 08:44:06;;;;;;;22.97;16.60;;;3.10;99.90;;;;;;6300286;28;20465;-70
2021/11/24 08:47:09;;;;;;;20.70;16.03;;;3.20;99.90;;;;;;6316411;28;20476;-70
2021/11/24 08:50:14;;;;;;;20.80;16.10;;;3.20;99.90;;;;;;6324711;28;20636;-69
2021/11/24 08:53:19;;;;;;;19.60;15.30;;;3.20;99.90;;;;;;6324351;28;20468;-67
2021/11/24 08:56:22;;;;;;;17.30;15.50;;;3.20;99.90;;;;;;6324486;28;20472;-67
2021/11/24 08:59:27;;;;;;;18.63;14.50;;;3.30;99.90;;;;;;6325295;28;20456;-68
2021/11/24 09:02:30;;;;;;;20.70;14.80;;;3.40;99.90;;;;;;6324463;28;20499;-71
2021/11/24 09:05:34;;;;;;;20.43;16.00;;;3.50;99.90;;;;;;6324404;28;20480;-67
2021/11/24 09:08:37;;;;;;;19.60;15.13;;;3.60;99.90;;;;;;6324519;28;20822;-68
2021/11/24 09:11:40;;;;;;;15.87;14.07;;;3.70;99.90;;;;;;6324723;28;20461;-68
2021/11/24 09:14:45;;;;;;;21.43;15.00;;;3.80;99.90;;;;;;6324840;28;20963;-68
2021/11/24 09:17:48;;;;;;;19.00;14.63;;;3.80;99.90;;;;;;6324201;28;20487;-68
2021/11/24 09:20:51;;;;;;;16.77;14.13;;;3.90;99.90;;;;;;6315284;28;20834;-68
2021/11/24 09:23:59;;;;;;;19.53;15.30;;;4.00;99.90;;;;;;6324318;28;20464;-68
2021/11/24 09:27:05;;;;;;;18.70;14.40;;;4.10;99.90;;;;;;6324023;28;20476;-69
2021/11/24 09:30:12;;;;;;;15.20;13.63;;;4.20;99.90;;;;;;6299655;28;20445;-67
2021/11/24 09:33:15;;;;;;;15.73;13.30;;;4.40;99.60;;;;;;6299247;28;20430;-69
2021/11/24 09:36:18;;;;;;;17.13;14.70;;;4.50;99.40;;;;;;6298665;28;20472;-69
2021/11/24 09:39:22;;;;;;;16.90;13.47;;;4.50;99.00;;;;;;6298363;28;20445;-68
2021/11/24 09:42:29;;;;;;;22.60;13.93;;;4.70;99.10;;;;;;6301687;28;21068;-67
2021/11/24 09:45:34;;;;;;;15.87;12.47;;;4.80;98.70;;;;;;6328630;28;20472;-67
2021/11/24 09:48:41;;;;;;;19.83;13.30;;;4.90;98.60;;;;;;6328340;28;20468;-67
2021/11/24 09:51:46;;;;;;;16.27;12.93;;;4.90;98.00;;;;;;6328942;28;20478;-67
2021/11/24 09:54:50;;;;;;;15.80;12.90;;;5.00;98.60;;;;;;6328670;28;20796;-67
2021/11/24 09:57:55;;;;;;;14.60;11.10;;;5.10;97.90;;;;;;6328504;28;20479;-67
2021/11/24 10:00:59;;;;;;;16.77;12.80;;;5.20;97.70;;;;;;6328531;28;20476;-68
2021/11/24 10:04:03;;;;;;;17.23;11.43;;;5.30;97.60;;;;;;6328865;28;20471;-67
2021/11/24 10:07:08;;;;;;;13.50;11.77;;;5.50;97.50;;;;;;6328271;28;20476;-68
2021/11/24 10:10:12;;;;;;;15.13;12.80;;;5.70;96.70;;;;;;6328512;28;20550;-68
2021/11/24 10:13:15;;;;;;;14.10;12.03;;;5.90;96.60;;;;;;6328682;27;20546;-67
2021/11/24 10:16:25;;;;;;;22.40;13.33;;;6.10;96.30;;;;;;6327955;27;20472;-67
2021/11/24 10:19:29;;;;;;;18.03;12.93;;;6.30;96.00;;;;;;6328589;27;20477;-67
2021/11/24 10:22:32;;;;;;;16.13;12.27;;;6.50;95.60;;;;;;6319500;27;20468;-68
2021/11/24 10:25:36;;;;;;;16.53;12.03;;;6.70;95.40;;;;;;6328333;27;20480;-68
2021/11/24 10:28:39;;;;;;;14.77;12.03;;;6.90;95.10;;;;;;6328082;27;20967;-67
2021/11/24 10:31:46;;;;;;;17.43;11.73;;;7.00;94.30;;;;;;6328046;27;20464;-68
2021/11/24 10:34:50;;;;;;;19.00;11.97;;;7.10;94.20;;;;;;6327445;27;20987;-67
2021/11/24 10:38:13;;;;;;;13.60;12.20;;;7.10;93.90;;;;;;6327392;27;20475;-68
2021/11/24 10:41:31;;;;;;;13.97;11.17;;;7.10;93.90;;;;;;6327802;27;20488;-68
2021/11/24 10:44:54;;;;;;;17.67;12.10;;;8.70;93.70;;;;;;6327548;27;20812;-69
2021/11/24 10:48:00;;;;;;;13.87;10.43;;;9.70;90.80;;;;;;6327509;28;20491;-67
2021/11/24 10:51:35;;;;;;;12.20;10.27;;;9.80;88.40;;;;;;6327481;28;20851;-67
2021/11/24 10:54:40;;;;;;;9.67;8.77;;;9.80;87.20;;;;;;6326376;28;20952;-68
2021/11/24 10:57:45;;;;;;;10.87;9.50;;;10.10;85.00;;;;;;6326903;28;20947;-68
2021/11/24 11:00:51;;;;;;;9.60;8.30;;;13.40;77.40;;;;;;6326571;28;21041;-68
2021/11/24 11:04:13;;;;;;;10.20;9.07;;;18.20;60.00;;;;;;6327268;28;20935;-68
2021/11/24 11:07:17;;;;;;;10.47;9.50;;;22.90;44.70;;;;;;6326758;28;20495;-68
2021/11/24 11:10:22;;;;;;;10.53;9.37;;;26.10;35.40;;;;;;6326824;28;20226;-68
2021/11/24 11:13:31;;;;;;;11.23;10.13;;;28.30;29.00;;;;;;6326623;28;20226;-70
2021/11/24 11:16:43;;;;;;;12.93;11.57;;;29.00;27.40;;;;;;6326338;28;20681;-69
2021/11/24 11:19:49;;;;;;;10.63;9.73;;;31.10;25.70;;;;;;6326926;28;20260;-68
2021/11/24 11:22:56;;;;;;;10.13;9.13;;;32.60;24.00;;;;;;6326539;28;20549;-68
2021/11/24 11:26:01;;;;;;;9.63;8.82;;;33.90;21.90;;;;;;6317826;28;20240;-70
2021/11/24 11:29:04;;;;;;;7.75;7.10;;;34.40;20.70;;;;;;6326123;28;20563;-68
2021/11/24 11:32:08;;;;;;;10.65;9.77;;;34.80;19.70;;;;;;6326382;28;20222;-70
2021/11/24 11:35:13;;;;;;;10.38;9.48;;;35.40;19.50;;;;;;6326855;28;20239;-70
2021/11/24 11:38:20;;;;;;;9.55;8.75;;;35.30;18.90;;;;;;6330168;28;20581;-68
2021/11/24 11:41:26;;;;;;;10.48;9.50;;;34.90;18.70;;;;;;6327972;27;20549;-69
2021/11/24 11:44:50;;;;;;;10.43;9.45;;;34.80;19.20;;;;;;6323651;27;20322;-70
2021/11/24 11:48:10;;;;;;;8.93;8.13;;;35.80;18.10;;;;;;6325207;28;20211;-70
2021/11/24 11:51:14;;;;;;;10.75;9.95;;;36.60;17.80;;;;;;6324913;28;20200;-69
2021/11/24 11:54:29;;;;;;;10.30;9.40;;;36.90;17.60;;;;;;6324168;28;20203;-70
2021/11/24 11:57:43;;;;;;;11.20;10.23;;;37.20;17.30;;;;;;6325232;28;20242;-69
2021/11/24 12:01:06;;;;;;;12.45;11.18;;;37.10;17.50;;;;;;6325258;28;20231;-69
2021/11/24 12:04:14;;;;;;;10.50;9.52;;;37.50;17.00;;;;;;6324815;28;20232;-71
2021/11/24 12:07:20;;;;;;;9.98;9.18;;;37.60;16.90;;;;;;6322893;28;20227;-69
2021/11/24 12:10:56;;;;;;;9.25;8.45;;;37.50;16.80;;;;;;6325026;28;20687;-68
2021/11/24 12:13:59;;;;;;;8.98;8.07;;;37.30;16.40;;;;;;6324807;28;20222;-72
2021/11/24 12:17:35;;;;;;;8.20;7.60;;;36.50;16.30;;;;;;6324553;28;20240;-68
2021/11/24 12:20:46;;;;;;;8.73;7.90;;;36.00;16.50;;;;;;6324871;28;20219;-68
2021/11/24 12:24:08;;;;;;;10.00;9.00;;;36.30;16.30;;;;;;6323121;28;20211;-68
2021/11/24 12:27:13;;;;;;;10.15;9.30;;;37.00;16.60;;;;;;6319808;28;20228;-68
2021/11/24 12:30:36;;;;;;;10.55;9.65;;;37.00;16.50;;;;;;6324435;28;20208;-70
2021/11/24 12:33:42;;;;;;;15.57;14.27;;;36.10;16.70;;;;;;6324318;28;20217;-71
2021/11/24 12:36:45;;;;;;;41.17;37.65;;;32.40;18.80;;;;;;6324009;28;20246;-69
2021/11/24 12:39:49;;;;;;;12.77;11.68;;;33.20;19.10;;;;;;6323893;27;20693;-69
2021/11/24 12:42:57;;;;;;;9.57;8.77;;;34.20;18.20;;;;;;6323671;27;20241;-70
2021/11/24 12:46:06;;;;;;;8.63;7.82;;;34.60;17.10;;;;;;6323731;28;20244;-69
2021/11/24 12:49:11;;;;;;;8.25;7.50;;;34.40;17.10;;;;;;6323517;28;20249;-68
2021/11/24 12:52:15;;;;;;;7.15;6.55;;;34.80;17.10;;;;;;6323965;28;20597;-71
2021/11/24 12:55:18;;;;;;;7.07;6.47;;;35.10;16.80;;;;;;6323051;28;20236;-70
2021/11/24 12:58:27;;;;;;;8.40;7.63;;;34.80;16.50;;;;;;6323521;28;20236;-69
2021/11/24 13:01:33;;;;;;;7.28;6.72;;;34.70;16.40;;;;;;6323613;28;20226;-71
2021/11/24 13:04:38;;;;;;;7.25;6.57;;;33.80;16.70;;;;;;6323498;28;20225;-69
2021/11/24 13:07:42;;;;;;;7.50;6.90;;;33.10;16.80;;;;;;6323267;28;20241;-70
2021/11/24 13:10:45;;;;;;;7.63;6.93;;;32.80;17.40;;;;;;6323382;28;20705;-69
2021/11/24 13:13:57;;;;;;;7.00;6.40;;;32.30;17.60;;;;;;6323907;28;20218;-69
2021/11/24 13:17:06;;;;;;;7.60;7.00;;;32.20;17.80;;;;;;6322481;28;20569;-68
2021/11/24 13:20:12;;;;;;;8.30;7.60;;;31.60;18.20;;;;;;6331674;28;20233;-69
2021/11/24 13:23:16;;;;;;;7.80;7.10;;;31.50;18.40;;;;;;6331407;28;20226;-67
2021/11/24 13:26:19;;;;;;;7.93;7.27;;;30.80;19.00;;;;;;6328734;28;20229;-67
2021/11/24 13:29:28;;;;;;;7.47;6.87;;;30.80;19.30;;;;;;6327916;28;20530;-66
2021/11/24 13:32:31;;;;;;;7.77;7.17;;;30.50;19.60;;;;;;6323559;28;20237;-67
2021/11/24 13:35:39;;;;;;;9.10;8.20;;;30.10;20.00;;;;;;6328135;28;20240;-66
2021/11/24 13:38:44;;;;;;;7.33;6.40;;;29.60;20.40;;;;;;6328390;28;20242;-70
2021/11/24 13:41:47;;;;;;;8.60;7.80;;;29.20;20.70;;;;;;6328041;28;20844;-68
2021/11/24 13:44:54;;;;;;;8.60;7.90;;;28.70;21.40;;;;;;6328287;28;20689;-68
2021/11/24 13:48:08;;;;;;;8.43;7.73;;;28.70;21.40;;;;;;6328207;28;20230;-68
2021/11/24 13:51:16;;;;;;;7.73;6.93;;;28.70;21.40;;;;;;6328187;28;20214;-69
2021/11/24 13:54:21;;;;;;;7.73;7.03;;;28.00;22.10;;;;;;6327755;28;20182;-67
2021/11/24 13:57:25;;;;;;;8.00;7.30;;;27.50;22.60;;;;;;6328189;28;20252;-66
2021/11/24 14:00:30;;;;;;;8.23;7.37;;;26.90;23.20;;;;;;6327291;28;20790;-66
2021/11/24 14:03:34;;;;;;;8.43;7.63;;;24.90;24.90;;;;;;6327951;28;20246;-66
2021/11/24 14:06:43;;;;;;;7.43;6.83;;;23.30;26.40;;;;;;6327107;28;20651;-68
2021/11/24 14:09:48;;;;;;;8.10;7.30;;;21.20;28.30;;;;;;6327384;28;20508;-68
2021/11/24 14:12:52;;;;;;;8.50;7.30;;;19.50;30.00;;;;;;6326958;28;20232;-67
2021/11/24 14:16:07;;;;;;;7.10;6.50;;;18.30;31.80;;;;;;6327406;28;20222;-67
2021/11/24 14:19:14;;;;;;;7.90;7.20;;;17.20;33.60;;;;;;6326533;27;20476;-67
2021/11/24 14:22:17;;;;;;;8.40;7.30;;;15.50;35.90;;;;;;6327029;27;20472;-68
2021/11/24 14:25:22;;;;;;;8.43;7.17;;;14.50;38.50;;;;;;6326953;27;20489;-69
2021/11/24 14:28:30;;;;;;;8.10;7.30;;;13.80;40.00;;;;;;6323717;28;20480;-66
2021/11/24 14:31:35;;;;;;;8.50;6.33;;;13.10;41.00;;;;;;6300330;28;20473;-68
2021/11/24 14:34:39;;;;;;;7.53;6.17;;;12.50;41.00;;;;;;6301512;28;20473;-67
2021/11/24 14:37:44;;;;;;;6.20;5.57;;;11.80;41.90;;;;;;6307756;28;20488;-67
2021/11/24 14:40:48;;;;;;;7.40;6.10;;;11.20;42.60;;;;;;6326758;28;20486;-66
2021/11/24 14:43:52;;;;;;;7.33;6.00;;;10.80;43.50;;;;;;6326129;28;20971;-66
2021/11/24 14:46:56;;;;;;;6.57;5.53;;;10.40;44.30;;;;;;6326403;28;20483;-66
2021/11/24 14:50:00;;;;;;;8.37;6.03;;;10.00;45.20;;;;;;6326569;28;21008;-67
2021/11/24 14:53:04;;;;;;;7.17;6.47;;;9.70;47.40;;;;;;6326096;28;20475;-66
2021/11/24 14:56:27;;;;;;;7.40;6.30;;;9.40;49.10;;;;;;6325340;28;20480;-67
2021/11/24 14:59:30;;;;;;;6.83;6.13;;;9.20;50.80;;;;;;6326223;28;20487;-67
2021/11/24 15:02:35;;;;;;;7.83;6.77;;;9.00;52.10;;;;;;6325697;28;20472;-67
2021/11/24 15:05:38;;;;;;;8.60;7.70;;;8.90;54.10;;;;;;6325871;28;20468;-66
2021/11/24 15:08:42;;;;;;;9.37;7.43;;;8.60;55.80;;;;;;6325504;28;20514;-67
2021/11/24 15:11:45;;;;;;;9.70;7.80;;;8.50;57.50;;;;;;6325449;28;20483;-67
2021/11/24 15:14:50;;;;;;;9.57;8.13;;;8.30;59.50;;;;;;6324621;28;20468;-66
2021/11/24 15:17:54;;;;;;;10.13;8.30;;;8.20;61.60;;;;;;6324609;28;20476;-66
2021/11/24 15:20:58;;;;;;;15.17;8.47;;;8.10;63.50;;;;;;6324953;28;20499;-67
2021/11/24 15:24:02;;;;;;;13.37;9.33;;;8.00;65.10;;;;;;6325059;27;20526;-67
2021/11/24 15:27:05;;;;;;;11.57;8.90;;;7.90;66.80;;;;;;6324873;27;20792;-66
2021/11/24 15:30:10;;;;;;;9.80;8.80;;;7.80;68.40;;;;;;6300142;28;20477;-65
2021/11/24 15:33:14;;;;;;;8.60;7.70;;;7.70;69.40;;;;;;6303586;28;20451;-66
2021/11/24 15:36:17;;;;;;;11.17;8.53;;;7.70;70.50;;;;;;6327103;28;20796;-64
2021/11/24 15:39:21;;;;;;;12.80;8.70;;;7.70;71.30;;;;;;6317428;27;20468;-65
2021/11/24 15:42:25;;;;;;;12.10;8.50;;;7.60;72.20;;;;;;6329050;27;20444;-64
2021/11/24 15:45:29;;;;;;;10.07;8.67;;;7.50;73.10;;;;;;6326353;28;20479;-69
2021/11/24 15:48:35;;;;;;;9.40;8.50;;;7.50;73.10;;;;;;6326605;28;20456;-69
2021/11/24 15:51:38;;;;;;;16.27;10.40;;;7.40;74.70;;;;;;6325459;28;20460;-67
2021/11/24 15:54:41;;;;;;;10.43;9.33;;;7.40;75.30;;;;;;6324812;28;20475;-67
2021/11/24 15:57:45;;;;;;;11.90;8.80;;;7.40;75.80;;;;;;6324843;28;20783;-68